Time;durP1;ratioP1;P1;durP2;ratioP2;P2;SDS_P1;SDS_P2;PMS_P1;PMS_P2;Temp;Humidity;BMP_temperature;BMP_pressure;BME280_temperature;BME280_humidity;BME280_pressure;Samples;Min_cycle;Max_cycle;Signal;HPM_P1;HPM_P2
2022/05/19 00:02:09;;;;;;;10.30;2.70;;;10.60;73.90;;;;;;5051594;28;20199;-83
2022/05/19 00:04:37;;;;;;;8.47;2.90;;;10.60;75.40;;;;;;5052744;28;20572;-82
2022/05/19 00:07:05;;;;;;;5.60;2.53;;;10.50;74.60;;;;;;5051090;28;20286;-81
2022/05/19 00:09:33;;;;;;;7.10;2.60;;;10.40;74.50;;;;;;5050858;28;20708;-81
2022/05/19 00:12:04;;;;;;;5.00;2.50;;;10.40;74.10;;;;;;5051097;28;20696;-81
2022/05/19 00:14:30;;;;;;;5.40;2.57;;;10.30;74.10;;;;;;5050987;28;20262;-80
2022/05/19 00:16:58;;;;;;;5.60;2.53;;;10.30;77.50;;;;;;5051331;28;20253;-71
2022/05/19 00:19:25;;;;;;;8.27;2.63;;;10.20;78.20;;;;;;5051346;28;20248;-81
2022/05/19 00:21:53;;;;;;;5.43;2.60;;;10.20;75.00;;;;;;5051302;28;20237;-83
2022/05/19 00:24:20;;;;;;;5.00;2.60;;;10.10;77.80;;;;;;5051287;28;20218;-83
2022/05/19 00:26:47;;;;;;;4.83;2.47;;;10.10;76.70;;;;;;5050905;28;20629;-77
2022/05/19 00:29:14;;;;;;;4.80;2.60;;;10.00;78.30;;;;;;5035194;28;20230;-82
2022/05/19 00:31:41;;;;;;;5.63;2.60;;;10.00;78.00;;;;;;5050835;28;20199;-83
2022/05/19 00:34:08;;;;;;;4.97;2.43;;;10.00;76.90;;;;;;5051382;28;20317;-82
2022/05/19 00:36:36;;;;;;;5.43;2.70;;;10.00;76.20;;;;;;5052232;28;20221;-83
2022/05/19 00:39:03;;;;;;;6.53;2.67;;;9.90;77.70;;;;;;5050903;28;20238;-82
2022/05/19 00:41:31;;;;;;;5.43;2.50;;;9.90;76.90;;;;;;5051412;28;20626;-82
2022/05/19 00:44:07;;;;;;;3.97;2.70;;;9.90;77.30;;;;;;5050975;28;20229;-81
2022/05/19 00:46:43;;;;;;;8.10;2.70;;;9.80;79.70;;;;;;5053826;28;20281;-82
2022/05/19 00:49:15;;;;;;;6.80;2.90;;;9.80;77.90;;;;;;5053255;28;20289;-82
2022/05/19 00:51:48;;;;;;;5.80;2.77;;;9.80;77.70;;;;;;5055106;28;20628;-80
2022/05/19 00:54:25;;;;;;;5.60;2.60;;;9.80;79.20;;;;;;5059965;28;20273;-77
2022/05/19 00:57:02;;;;;;;4.30;2.80;;;9.70;78.40;;;;;;5060101;28;20652;-83
2022/05/19 00:59:35;;;;;;;6.50;2.90;;;9.60;78.80;;;;;;5055811;28;20260;-72
2022/05/19 01:02:05;;;;;;;6.57;2.90;;;9.60;81.30;;;;;;5054954;28;20289;-76
2022/05/19 01:04:40;;;;;;;4.53;2.70;;;9.50;80.70;;;;;;5056255;28;20214;-82
2022/05/19 01:07:15;;;;;;;7.53;2.83;;;9.50;80.40;;;;;;5056805;28;20205;-71
2022/05/19 01:09:42;;;;;;;4.23;2.43;;;9.40;82.50;;;;;;5054493;28;20206;-69
2022/05/19 01:12:10;;;;;;;7.10;2.73;;;9.30;83.40;;;;;;5055882;28;20214;-68
2022/05/19 01:14:37;;;;;;;4.23;2.57;;;9.20;85.40;;;;;;5055165;28;20234;-70
2022/05/19 01:17:06;;;;;;;4.97;2.63;;;9.10;85.90;;;;;;5056744;28;20278;-82
2022/05/19 01:19:37;;;;;;;4.30;2.57;;;9.00;86.10;;;;;;5060351;28;20298;-71
2022/05/19 01:22:40;;;;;;;4.33;2.57;;;8.90;86.00;;;;;;5055528;28;20736;-69
2022/05/19 01:25:15;;;;;;;4.23;2.73;;;8.90;88.00;;;;;;5054275;28;20297;-67
2022/05/19 01:27:42;;;;;;;7.90;2.80;;;8.80;90.00;;;;;;5055045;28;20592;-84
2022/05/19 01:30:11;;;;;;;4.93;2.77;;;8.70;90.40;;;;;;5055994;28;20201;-85
2022/05/19 01:32:38;;;;;;;4.17;2.80;;;8.60;90.70;;;;;;5054902;28;20234;-78
2022/05/19 01:35:06;;;;;;;5.63;3.17;;;8.50;91.60;;;;;;5056003;28;20313;-85
2022/05/19 01:37:33;;;;;;;6.03;3.10;;;8.50;92.20;;;;;;5056275;28;20373;-83
2022/05/19 01:40:14;;;;;;;6.73;2.83;;;8.50;92.50;;;;;;5055842;28;20205;-84
2022/05/19 01:42:52;;;;;;;6.43;2.97;;;8.40;93.30;;;;;;5054115;28;20237;-79
2022/05/19 01:45:47;;;;;;;10.07;3.23;;;8.30;94.20;;;;;;5056663;28;20206;-79
2022/05/19 01:48:18;;;;;;;6.93;2.80;;;8.30;95.50;;;;;;5054993;28;20218;-69
2022/05/19 01:51:14;;;;;;;4.90;2.70;;;8.20;96.30;;;;;;5055128;28;20298;-77
2022/05/19 01:54:04;;;;;;;6.57;2.80;;;8.10;98.00;;;;;;5048066;28;20312;-79
2022/05/19 01:56:46;;;;;;;5.60;2.90;;;8.10;99.00;;;;;;5054541;28;20285;-75
2022/05/19 01:59:38;;;;;;;5.30;3.27;;;8.00;99.90;;;;;;5059684;28;20234;-74
2022/05/19 02:02:47;;;;;;;6.37;2.93;;;7.90;99.90;;;;;;5053597;28;20205;-77
2022/05/19 02:05:41;;;;;;;6.10;2.90;;;7.90;99.90;;;;;;5053593;28;20203;-77
2022/05/19 02:08:14;;;;;;;8.77;3.13;;;7.90;99.90;;;;;;5032615;28;20246;-81
2022/05/19 02:10:45;;;;;;;7.50;3.13;;;7.80;99.90;;;;;;5015955;28;20210;-75
2022/05/19 02:13:12;;;;;;;5.73;3.30;;;7.70;99.90;;;;;;5032651;28;20204;-73
2022/05/19 02:15:42;;;;;;;8.03;3.80;;;7.70;99.90;;;;;;5032243;28;20226;-78
2022/05/19 02:18:09;;;;;;;8.93;3.47;;;7.70;99.90;;;;;;5016031;28;20395;-74
2022/05/19 02:20:38;;;;;;;7.67;3.30;;;7.70;99.90;;;;;;5015865;28;20196;-80
2022/05/19 02:23:05;;;;;;;6.97;3.50;;;7.60;99.90;;;;;;5015649;28;20200;-79
2022/05/19 02:25:39;;;;;;;8.60;3.40;;;7.60;99.90;;;;;;5015786;28;20207;-78
2022/05/19 02:28:28;;;;;;;8.23;3.30;;;7.50;99.90;;;;;;5032389;28;20282;-76
2022/05/19 02:30:55;;;;;;;5.03;3.13;;;7.40;99.90;;;;;;5015729;28;20294;-78
2022/05/19 02:33:23;;;;;;;6.83;3.40;;;7.40;99.90;;;;;;5016186;28;20203;-74
2022/05/19 02:35:51;;;;;;;8.97;3.50;;;7.40;99.90;;;;;;5033021;28;20222;-80
2022/05/19 02:38:19;;;;;;;5.93;3.20;;;7.40;99.90;;;;;;5015469;28;20286;-78
2022/05/19 02:40:47;;;;;;;6.17;3.70;;;7.40;99.90;;;;;;5046081;28;20203;-67
2022/05/19 02:43:15;;;;;;;6.10;3.70;;;7.40;99.90;;;;;;5042449;28;20286;-80
2022/05/19 02:45:43;;;;;;;7.20;3.83;;;7.40;99.90;;;;;;5050535;28;20217;-73
2022/05/19 02:48:11;;;;;;;6.43;3.27;;;7.30;99.90;;;;;;5067971;28;20551;-67
2022/05/19 02:50:40;;;;;;;6.57;3.50;;;7.30;99.90;;;;;;5057081;28;20290;-67
2022/05/19 02:53:07;;;;;;;4.93;3.27;;;7.30;99.90;;;;;;5052462;28;20241;-74
2022/05/19 02:55:34;;;;;;;5.33;3.30;;;7.30;99.90;;;;;;5036393;28;20309;-70
2022/05/19 02:58:01;;;;;;;8.10;3.83;;;7.30;99.90;;;;;;5052625;28;20230;-70
2022/05/19 03:00:28;;;;;;;5.30;3.47;;;7.40;99.90;;;;;;5052813;28;20238;-76
2022/05/19 03:02:57;;;;;;;8.27;3.77;;;7.40;99.90;;;;;;5052200;28;20709;-80
2022/05/19 03:05:33;;;;;;;6.10;3.60;;;7.50;99.90;;;;;;5036632;28;20685;-81
2022/05/19 03:08:06;;;;;;;6.23;3.40;;;7.50;99.90;;;;;;5053419;28;20273;-79
2022/05/19 03:10:35;;;;;;;5.77;3.27;;;7.60;99.90;;;;;;5052257;28;20302;-80
2022/05/19 03:13:04;;;;;;;6.83;3.53;;;7.70;99.90;;;;;;5052131;28;20260;-80
2022/05/19 03:15:33;;;;;;;6.17;3.37;;;7.80;99.90;;;;;;5052369;28;20305;-80
2022/05/19 03:18:00;;;;;;;7.63;3.77;;;7.90;99.90;;;;;;5052616;28;20221;-80
2022/05/19 03:20:27;;;;;;;6.63;3.70;;;8.00;99.90;;;;;;5054633;28;20230;-82
2022/05/19 03:22:54;;;;;;;6.57;3.03;;;8.00;99.90;;;;;;5051857;28;20205;-81
2022/05/19 03:25:21;;;;;;;6.93;3.57;;;8.00;99.90;;;;;;5051807;28;20674;-81
2022/05/19 03:27:48;;;;;;;7.47;3.60;;;8.10;99.90;;;;;;5052052;28;20195;-81
2022/05/19 03:30:16;;;;;;;6.37;3.70;;;8.20;99.90;;;;;;5051999;28;20754;-81
2022/05/19 03:32:44;;;;;;;5.67;3.07;;;8.30;99.90;;;;;;5053539;28;20262;-81
2022/05/19 03:35:13;;;;;;;5.37;3.20;;;8.40;99.90;;;;;;5051874;28;20758;-80
2022/05/19 03:37:42;;;;;;;8.40;3.80;;;8.50;99.90;;;;;;5034991;28;20198;-75
2022/05/19 03:40:11;;;;;;;6.23;3.40;;;8.60;99.90;;;;;;5051692;28;20225;-79
2022/05/19 03:42:38;;;;;;;6.80;3.97;;;8.70;99.90;;;;;;5051986;28;20209;-80
2022/05/19 03:45:05;;;;;;;9.17;3.50;;;8.80;99.90;;;;;;5051448;28;20600;-80
2022/05/19 03:47:32;;;;;;;5.27;3.10;;;8.90;99.90;;;;;;5051768;28;20195;-79
2022/05/19 03:49:59;;;;;;;7.43;2.63;;;9.10;99.90;;;;;;5051385;28;20203;-80
2022/05/19 03:52:26;;;;;;;7.33;2.73;;;9.20;99.90;;;;;;5051895;28;20655;-81
2022/05/19 03:54:53;;;;;;;4.80;2.70;;;9.30;99.90;;;;;;5051354;28;20581;-77
2022/05/19 03:57:21;;;;;;;12.27;3.67;;;9.50;99.90;;;;;;5051879;28;20556;-79
2022/05/19 03:59:49;;;;;;;6.30;3.33;;;9.70;99.90;;;;;;5051418;28;20234;-79
2022/05/19 04:02:16;;;;;;;6.53;4.00;;;9.70;99.90;;;;;;5052749;28;20238;-72
2022/05/19 04:05:01;;;;;;;17.03;3.20;;;9.80;99.90;;;;;;5052353;28;20558;-80
2022/05/19 04:07:28;;;;;;;5.10;2.70;;;9.90;99.90;;;;;;5051296;28;20301;-80
2022/05/19 04:09:56;;;;;;;7.27;3.10;;;10.00;97.60;;;;;;5052871;28;20675;-81
2022/05/19 04:12:23;;;;;;;5.80;3.50;;;10.10;98.50;;;;;;5052166;28;20237;-80
2022/05/19 04:14:50;;;;;;;6.40;3.10;;;10.20;98.70;;;;;;5050800;28;20309;-75
2022/05/19 04:17:17;;;;;;;7.20;2.80;;;10.30;98.00;;;;;;5051290;28;20199;-78
2022/05/19 04:19:44;;;;;;;4.63;2.60;;;10.30;97.20;;;;;;5051214;28;20237;-76
2022/05/19 04:22:11;;;;;;;5.70;2.90;;;10.50;94.70;;;;;;5051223;28;20289;-76
2022/05/19 04:24:38;;;;;;;6.80;2.87;;;10.60;94.90;;;;;;5050436;28;20233;-78
2022/05/19 04:27:05;;;;;;;3.63;2.50;;;10.60;92.60;;;;;;5051025;28;20612;-79
2022/05/19 04:29:32;;;;;;;7.00;3.13;;;10.70;92.90;;;;;;5052022;28;20219;-78
2022/05/19 04:31:59;;;;;;;5.93;2.83;;;10.90;92.00;;;;;;5051131;28;20289;-76
2022/05/19 04:34:26;;;;;;;5.50;2.90;;;11.00;91.70;;;;;;5050615;28;20325;-79
2022/05/19 04:36:53;;;;;;;7.43;3.47;;;11.10;91.20;;;;;;5053006;28;20335;-85
2022/05/19 04:39:20;;;;;;;6.33;3.00;;;11.20;90.90;;;;;;5056160;28;20234;-81
2022/05/19 04:41:46;;;;;;;8.07;2.90;;;11.30;91.00;;;;;;5051091;28;20281;-83
2022/05/19 04:44:13;;;;;;;7.13;3.07;;;11.40;91.20;;;;;;5051087;28;20290;-84
2022/05/19 04:46:40;;;;;;;8.73;2.90;;;11.40;90.70;;;;;;5052331;28;20221;-82
2022/05/19 04:49:07;;;;;;;5.83;2.90;;;11.60;90.50;;;;;;5051718;28;20214;-81
2022/05/19 04:51:34;;;;;;;5.97;2.70;;;11.70;90.00;;;;;;5051214;28;20301;-83
2022/05/19 04:54:01;;;;;;;7.10;2.97;;;11.70;89.60;;;;;;5051159;28;20221;-84
2022/05/19 04:56:30;;;;;;;8.17;2.70;;;11.80;87.90;;;;;;5051012;28;20678;-85
2022/05/19 04:58:57;;;;;;;4.33;2.53;;;11.90;89.30;;;;;;5050759;28;20241;-76
2022/05/19 05:01:24;;;;;;;8.53;2.90;;;11.90;88.40;;;;;;5051252;28;20241;-85
2022/05/19 05:03:51;;;;;;;6.83;2.70;;;12.00;87.10;;;;;;5051324;28;20225;-81
2022/05/19 05:06:18;;;;;;;4.83;2.70;;;12.10;86.50;;;;;;5051566;28;20209;-84
2022/05/19 05:08:44;;;;;;;6.33;2.70;;;12.20;85.40;;;;;;5052108;28;20274;-83
2022/05/19 05:11:11;;;;;;;5.50;2.53;;;12.30;86.50;;;;;;5051171;28;20696;-84
2022/05/19 05:13:38;;;;;;;5.07;2.60;;;12.40;85.40;;;;;;5052414;28;20202;-84
2022/05/19 05:16:05;;;;;;;9.70;2.20;;;12.50;85.60;;;;;;5053230;28;20269;-85
2022/05/19 05:18:32;;;;;;;10.53;2.67;;;12.50;84.80;;;;;;5050699;28;20202;-78
2022/05/19 05:21:04;;;;;;;5.93;2.33;;;12.60;83.60;;;;;;5051542;28;20270;-78
2022/05/19 05:23:30;;;;;;;5.33;2.33;;;12.70;82.70;;;;;;5051762;28;20659;-80
2022/05/19 05:25:57;;;;;;;6.67;2.30;;;12.80;82.50;;;;;;5050862;28;20309;-78
2022/05/19 05:28:24;;;;;;;4.80;2.47;;;12.90;82.10;;;;;;5051435;28;20281;-85
2022/05/19 05:30:51;;;;;;;4.23;2.57;;;12.90;82.00;;;;;;5055100;28;20293;-79
2022/05/19 05:33:18;;;;;;;6.60;2.13;;;13.00;81.30;;;;;;5071030;28;20195;-80
2022/05/19 05:35:45;;;;;;;8.03;2.10;;;13.10;80.90;;;;;;5074035;28;20226;-87
2022/05/19 05:38:11;;;;;;;7.53;2.27;;;13.10;81.00;;;;;;5074024;28;20229;-84
2022/05/19 05:40:38;;;;;;;5.83;2.10;;;13.30;81.20;;;;;;5077219;28;20198;-83
2022/05/19 05:43:11;;;;;;;6.27;2.20;;;13.40;80.20;;;;;;5075120;28;20671;-86
2022/05/19 05:45:40;;;;;;;5.90;2.40;;;13.50;81.20;;;;;;5072058;28;20259;-85
2022/05/19 05:48:08;;;;;;;4.67;2.30;;;13.60;81.50;;;;;;5060042;28;20190;-83
2022/05/19 05:50:34;;;;;;;7.97;1.90;;;13.70;81.50;;;;;;5055893;28;20209;-83
2022/05/19 05:53:02;;;;;;;9.53;2.33;;;13.90;80.40;;;;;;5054091;28;20659;-84
2022/05/19 05:55:29;;;;;;;5.23;2.20;;;13.90;79.70;;;;;;5055202;28;20244;-86
2022/05/19 05:57:56;;;;;;;6.73;2.20;;;14.00;79.40;;;;;;5053769;28;20222;-86
2022/05/19 06:00:26;;;;;;;5.23;2.20;;;14.20;78.90;;;;;;5056906;28;20536;-81
2022/05/19 06:02:53;;;;;;;6.27;2.20;;;14.30;77.50;;;;;;5054343;28;20289;-73
2022/05/19 06:05:20;;;;;;;6.33;2.20;;;14.40;78.10;;;;;;5055400;28;20237;-75
2022/05/19 06:07:47;;;;;;;8.93;2.03;;;14.60;77.10;;;;;;5053974;28;20233;-84
2022/05/19 06:10:14;;;;;;;7.20;2.33;;;14.70;76.60;;;;;;5053375;28;20245;-83
2022/05/19 06:12:41;;;;;;;4.80;2.23;;;14.80;77.20;;;;;;5053471;28;20226;-77
2022/05/19 06:15:11;;;;;;;5.77;2.10;;;14.90;76.50;;;;;;5053904;28;20645;-84
2022/05/19 06:17:39;;;;;;;4.07;1.67;;;15.10;74.70;;;;;;5055638;28;20218;-79
2022/05/19 06:20:13;;;;;;;10.70;2.37;;;15.20;74.90;;;;;;5055172;28;20567;-83
2022/05/19 06:22:41;;;;;;;8.93;2.00;;;15.20;75.10;;;;;;5054473;28;20193;-83
2022/05/19 06:25:09;;;;;;;6.00;2.00;;;15.30;74.30;;;;;;5053287;28;20207;-84
2022/05/19 06:27:36;;;;;;;7.73;1.80;;;15.50;74.40;;;;;;5054493;28;20218;-84
2022/05/19 06:30:07;;;;;;;11.17;2.20;;;15.60;73.30;;;;;;5053661;28;20260;-84
2022/05/19 06:32:35;;;;;;;6.03;1.50;;;15.70;73.50;;;;;;5053082;28;20648;-83
2022/05/19 06:35:03;;;;;;;7.10;1.60;;;15.90;71.80;;;;;;5052617;28;20321;-82
2022/05/19 06:37:33;;;;;;;6.67;2.17;;;16.00;70.90;;;;;;5053201;28;20289;-82
2022/05/19 06:40:00;;;;;;;6.70;1.60;;;16.10;70.30;;;;;;5052582;28;20209;-78
2022/05/19 06:42:27;;;;;;;7.40;1.70;;;16.20;70.20;;;;;;5052811;28;20293;-79
2022/05/19 06:44:56;;;;;;;5.93;1.63;;;16.40;68.60;;;;;;5052696;28;20209;-79
2022/05/19 06:47:23;;;;;;;5.33;1.43;;;16.50;68.10;;;;;;5052327;28;20190;-80
2022/05/19 06:49:51;;;;;;;4.00;1.53;;;16.60;64.00;;;;;;5052588;28;20640;-77
2022/05/19 06:52:24;;;;;;;4.47;1.37;;;16.80;61.40;;;;;;5053645;28;20281;-80
2022/05/19 06:54:53;;;;;;;4.20;1.47;;;16.90;60.70;;;;;;5052427;28;20318;-76
2022/05/19 06:57:22;;;;;;;4.03;1.40;;;17.00;59.30;;;;;;5052395;28;20289;-75
2022/05/19 06:59:51;;;;;;;4.13;1.53;;;17.10;58.40;;;;;;5052541;28;20241;-75
2022/05/19 07:02:19;;;;;;;5.97;1.60;;;17.20;59.40;;;;;;5052253;28;20235;-76
2022/05/19 07:04:47;;;;;;;7.10;1.53;;;17.30;59.10;;;;;;5053989;28;20210;-74
2022/05/19 07:07:14;;;;;;;5.40;1.40;;;17.50;59.30;;;;;;5052097;28;20191;-79
2022/05/19 07:09:42;;;;;;;3.33;1.10;;;17.60;57.30;;;;;;5052049;28;20209;-80
2022/05/19 07:12:10;;;;;;;5.90;1.30;;;17.60;55.80;;;;;;5052106;28;20752;-78
2022/05/19 07:14:37;;;;;;;4.20;1.10;;;17.70;56.00;;;;;;5052106;28;20321;-79
2022/05/19 07:17:05;;;;;;;3.07;1.40;;;17.70;54.80;;;;;;5052078;28;20648;-77
2022/05/19 07:22:22;;;;;;;3.87;1.40;;;17.80;55.70;;;;;;5052001;28;20221;-74
2022/05/19 07:24:51;;;;;;;2.83;1.27;;;18.00;55.20;;;;;;5052127;28;20595;-79
2022/05/19 07:27:18;;;;;;;6.97;1.30;;;18.00;54.80;;;;;;5052117;28;20205;-76
2022/05/19 07:29:45;;;;;;;2.73;1.10;;;18.10;53.40;;;;;;5053596;28;20583;-80
2022/05/19 07:32:22;;;;;;;4.73;1.30;;;18.10;51.50;;;;;;5051804;28;20256;-76
2022/05/19 07:34:49;;;;;;;3.87;1.20;;;18.20;52.30;;;;;;5051536;28;20199;-75
2022/05/19 07:37:16;;;;;;;2.87;1.20;;;18.30;52.00;;;;;;5051777;28;20286;-74
2022/05/19 07:39:44;;;;;;;2.40;1.10;;;18.40;50.90;;;;;;5051623;28;20905;-74
2022/05/19 07:42:11;;;;;;;4.23;1.50;;;18.40;50.70;;;;;;5051596;28;20751;-73
2022/05/19 07:44:38;;;;;;;2.70;1.20;;;18.50;50.50;;;;;;5051197;28;20640;-75
2022/05/19 07:47:05;;;;;;;3.50;1.00;;;18.50;50.30;;;;;;5052898;28;20286;-74
2022/05/19 07:49:32;;;;;;;4.30;1.33;;;18.70;50.50;;;;;;5051270;28;20679;-76
2022/05/19 07:52:00;;;;;;;5.50;1.30;;;18.80;51.10;;;;;;5053103;28;20567;-74
2022/05/19 07:54:28;;;;;;;3.30;1.23;;;18.90;50.00;;;;;;5051307;28;20191;-73
2022/05/19 07:56:55;;;;;;;5.07;1.20;;;18.90;48.40;;;;;;5051194;28;20231;-75
2022/05/19 07:59:23;;;;;;;4.03;1.20;;;19.00;50.00;;;;;;5050694;28;20317;-73
2022/05/19 08:01:50;;;;;;;2.93;1.07;;;19.10;48.70;;;;;;5051353;28;20209;-70
2022/05/19 08:04:20;;;;;;;3.17;1.30;;;19.20;48.60;;;;;;5051348;28;20207;-74
2022/05/19 08:06:48;;;;;;;3.47;1.17;;;19.00;47.40;;;;;;5051181;28;20597;-74
2022/05/19 08:12:02;;;;;;;3.40;1.10;;;19.10;48.40;;;;;;5051100;28;20319;-68
2022/05/19 08:17:30;;;;;;;3.03;1.20;;;20.20;45.00;;;;;;5051403;28;20598;-71
2022/05/19 08:19:58;;;;;;;3.10;1.00;;;21.60;44.30;;;;;;5051155;28;20191;-77
2022/05/19 08:22:25;;;;;;;5.22;1.08;;;22.40;41.20;;;;;;5050923;28;20197;-72
2022/05/19 08:24:52;;;;;;;4.15;1.10;;;22.90;38.30;;;;;;5051008;28;20206;-73
2022/05/19 08:27:18;;;;;;;3.67;1.17;;;23.30;38.20;;;;;;5050927;28;20293;-74
2022/05/19 08:29:46;;;;;;;1.80;1.10;;;23.50;37.70;;;;;;5052476;28;20206;-74
2022/05/19 08:32:14;;;;;;;1.98;1.30;;;23.70;37.90;;;;;;5050910;28;20290;-73
2022/05/19 08:34:41;;;;;;;4.47;1.10;;;24.00;37.50;;;;;;5050939;28;20195;-73
2022/05/19 08:37:08;;;;;;;2.50;1.27;;;24.30;37.50;;;;;;5050831;28;20400;-73
2022/05/19 08:39:34;;;;;;;5.47;1.23;;;24.90;36.60;;;;;;5050863;28;20294;-73
2022/05/19 08:42:05;;;;;;;2.55;1.23;;;25.40;35.30;;;;;;5050962;28;20205;-75
2022/05/19 08:44:41;;;;;;;3.38;1.35;;;25.70;35.80;;;;;;5034228;28;20285;-74
2022/05/19 08:47:12;;;;;;;3.05;1.35;;;25.30;34.90;;;;;;5050968;28;20636;-74
2022/05/19 08:50:01;;;;;;;2.58;1.20;;;24.90;34.60;;;;;;5050885;28;20202;-73
2022/05/19 08:52:47;;;;;;;3.88;1.50;;;24.40;36.00;;;;;;5050719;28;20294;-74
2022/05/19 08:55:17;;;;;;;3.03;1.20;;;24.70;38.00;;;;;;5050381;28;20228;-72
2022/05/19 08:58:10;;;;;;;4.15;1.30;;;25.20;35.40;;;;;;5050625;28;20239;-73
2022/05/19 09:00:44;;;;;;;2.08;1.30;;;24.80;35.40;;;;;;5051682;28;20273;-75
2022/05/19 09:03:20;;;;;;;4.93;1.20;;;24.90;36.60;;;;;;5050589;28;20195;-75
2022/05/19 09:06:18;;;;;;;4.68;1.30;;;24.90;34.90;;;;;;5050524;28;20252;-73
2022/05/19 09:08:59;;;;;;;3.95;1.33;;;25.00;34.70;;;;;;5050703;28;20298;-75
2022/05/19 09:11:40;;;;;;;4.53;1.35;;;24.90;35.10;;;;;;5054193;28;20210;-69
2022/05/19 09:14:23;;;;;;;2.88;1.25;;;25.60;35.70;;;;;;5054466;28;20264;-75
2022/05/19 09:16:53;;;;;;;6.10;1.20;;;25.60;35.40;;;;;;5054185;28;20510;-72
2022/05/19 09:19:35;;;;;;;3.47;1.30;;;25.00;34.80;;;;;;5055135;28;20603;-72
2022/05/19 09:22:07;;;;;;;3.95;1.08;;;24.70;35.40;;;;;;5053802;28;20217;-74
2022/05/19 09:24:34;;;;;;;3.83;1.20;;;24.60;35.30;;;;;;5054403;28;20731;-73
2022/05/19 09:27:02;;;;;;;2.72;1.23;;;24.40;35.10;;;;;;5054230;28;20289;-74
2022/05/19 09:29:32;;;;;;;2.70;1.48;;;24.40;36.10;;;;;;5054068;28;20209;-67
2022/05/19 09:32:14;;;;;;;2.28;1.30;;;24.60;35.80;;;;;;5053753;28;20199;-68
2022/05/19 09:34:44;;;;;;;4.18;1.50;;;24.50;36.30;;;;;;5053556;28;20281;-70
2022/05/19 09:37:28;;;;;;;5.05;1.30;;;24.50;36.10;;;;;;5054176;28;20237;-73
2022/05/19 09:40:11;;;;;;;3.72;1.42;;;25.00;36.00;;;;;;5055310;28;20253;-72
2022/05/19 09:43:06;;;;;;;3.33;1.30;;;25.00;35.10;;;;;;5053732;28;20198;-73
2022/05/19 09:45:45;;;;;;;5.00;1.55;;;25.00;35.30;;;;;;5053765;28;20194;-73
2022/05/19 09:48:13;;;;;;;3.17;1.38;;;25.30;35.10;;;;;;5053920;28;20249;-74
2022/05/19 09:50:48;;;;;;;1.88;1.20;;;25.20;34.60;;;;;;5053560;28;20209;-74
2022/05/19 09:53:22;;;;;;;2.42;1.23;;;25.30;35.30;;;;;;5053562;28;20244;-73
2022/05/19 09:56:04;;;;;;;3.42;1.42;;;25.70;35.30;;;;;;5054503;28;20250;-75
2022/05/19 09:58:36;;;;;;;5.63;1.42;;;25.90;34.70;;;;;;5053484;28;20222;-75
2022/05/19 10:01:16;;;;;;;4.07;1.40;;;26.20;33.50;;;;;;5053552;28;20289;-75
2022/05/19 10:03:48;;;;;;;2.85;1.50;;;26.10;33.70;;;;;;5053115;28;20667;-74
2022/05/19 10:06:20;;;;;;;4.35;1.48;;;26.60;34.00;;;;;;5054953;28;20506;-74
2022/05/19 10:08:57;;;;;;;5.82;1.88;;;26.40;33.10;;;;;;5053308;28;20194;-76
2022/05/19 10:11:28;;;;;;;3.75;1.50;;;26.00;33.00;;;;;;5053336;28;20218;-75
2022/05/19 10:14:07;;;;;;;4.38;1.70;;;26.00;34.00;;;;;;5053311;28;20289;-68
2022/05/19 10:16:40;;;;;;;7.32;1.60;;;26.00;34.10;;;;;;5052978;28;20226;-67
2022/05/19 10:19:36;;;;;;;4.10;1.50;;;26.60;33.80;;;;;;5053001;28;20293;-74
2022/05/19 10:22:18;;;;;;;4.13;1.60;;;27.20;33.30;;;;;;5052258;28;20314;-71
2022/05/19 10:25:01;;;;;;;4.57;1.42;;;26.70;33.20;;;;;;5052993;28;20481;-68
2022/05/19 10:31:05;;;;;;;3.20;1.60;;;27.60;33.90;;;;;;5054358;28;20194;-75
2022/05/19 10:33:57;;;;;;;2.03;1.25;;;27.50;32.80;;;;;;5052967;28;20664;-74
2022/05/19 10:36:41;;;;;;;4.18;1.60;;;27.70;33.00;;;;;;5052723;28;20254;-70
2022/05/19 10:39:30;;;;;;;3.72;1.50;;;27.70;33.10;;;;;;5052699;28;20199;-74
2022/05/19 10:42:09;;;;;;;2.20;1.38;;;28.50;33.30;;;;;;5052892;28;20226;-76
2022/05/19 10:44:51;;;;;;;2.95;1.42;;;28.40;31.50;;;;;;5052890;28;20248;-76
2022/05/19 10:47:35;;;;;;;2.75;1.25;;;28.00;31.40;;;;;;5052749;28;20242;-75
2022/05/19 10:50:20;;;;;;;5.10;1.58;;;27.80;33.00;;;;;;5054066;28;20248;-69
2022/05/19 10:53:35;;;;;;;4.90;1.52;;;28.30;32.40;;;;;;5052999;28;20213;-76
2022/05/19 10:56:25;;;;;;;4.93;1.33;;;28.70;32.00;;;;;;5048974;28;20233;-75
2022/05/19 10:58:55;;;;;;;4.68;1.30;;;28.30;31.60;;;;;;5052251;28;20293;-67
2022/05/19 11:01:31;;;;;;;2.67;1.25;;;28.90;32.90;;;;;;5052134;28;20199;-69
2022/05/19 11:04:17;;;;;;;3.00;1.45;;;29.40;31.60;;;;;;5052658;28;20199;-67
2022/05/19 11:06:53;;;;;;;3.53;1.70;;;29.20;30.50;;;;;;5052308;28;20583;-75
2022/05/19 11:09:22;;;;;;;3.53;1.70;;;29.70;31.00;;;;;;5051926;28;20199;-73
2022/05/19 11:12:20;;;;;;;3.90;1.50;;;29.80;30.00;;;;;;5053293;28;20298;-74
2022/05/19 11:15:02;;;;;;;4.03;1.60;;;28.80;30.60;;;;;;5051944;28;20229;-72
2022/05/19 11:17:58;;;;;;;4.88;1.70;;;29.60;30.80;;;;;;5051925;28;20219;-70
2022/05/19 11:20:36;;;;;;;5.93;1.48;;;29.00;30.10;;;;;;5053004;28;20218;-72
2022/05/19 11:23:12;;;;;;;4.50;1.95;;;29.40;30.10;;;;;;5052245;28;20212;-71
2022/05/19 11:28:54;;;;;;;5.57;1.70;;;28.50;31.00;;;;;;5051591;28;20198;-67
2022/05/19 11:31:39;;;;;;;3.78;1.70;;;28.50;31.70;;;;;;5051516;28;20252;-69
2022/05/19 11:34:37;;;;;;;5.68;2.10;;;28.20;31.20;;;;;;5051244;28;20221;-74
2022/05/19 11:37:17;;;;;;;2.50;1.70;;;29.20;32.00;;;;;;5036704;28;20226;-74
2022/05/19 11:40:13;;;;;;;2.60;1.75;;;30.00;32.70;;;;;;5051492;28;20197;-74
2022/05/19 11:42:47;;;;;;;11.60;2.17;;;30.20;30.40;;;;;;5051492;28;20293;-69
2022/05/19 11:45:46;;;;;;;5.13;1.90;;;29.40;29.80;;;;;;5051211;28;20202;-70
2022/05/19 11:57:52;;;;;;;3.97;1.90;;;29.30;29.40;;;;;;5051157;28;20254;-71
2022/05/19 12:00:27;;;;;;;4.32;1.90;;;29.80;29.40;;;;;;5051593;28;20221;-69
2022/05/19 12:03:21;;;;;;;6.90;1.88;;;30.10;30.00;;;;;;5051100;28;20698;-71
2022/05/19 12:05:59;;;;;;;6.05;1.92;;;29.60;29.30;;;;;;5051085;28;20195;-72
2022/05/19 12:08:40;;;;;;;5.05;2.00;;;29.60;30.20;;;;;;5052387;28;20240;-73
2022/05/19 12:11:11;;;;;;;4.80;1.90;;;29.60;30.10;;;;;;5051029;28;20638;-70
2022/05/19 12:13:43;;;;;;;3.80;1.90;;;29.90;30.00;;;;;;5050983;28;20234;-74
2022/05/19 12:16:13;;;;;;;2.63;1.67;;;30.80;29.80;;;;;;5051027;28;20223;-74
2022/05/19 12:19:08;;;;;;;5.78;1.80;;;31.50;28.70;;;;;;5050965;28;20191;-72
2022/05/19 12:21:51;;;;;;;3.80;1.92;;;30.70;28.40;;;;;;5052318;28;20195;-73
2022/05/19 12:24:24;;;;;;;4.07;1.80;;;31.00;28.80;;;;;;5051048;28;20203;-75
2022/05/19 12:26:51;;;;;;;5.00;1.77;;;31.40;29.40;;;;;;5051140;28;20217;-74
2022/05/19 12:29:43;;;;;;;3.25;2.00;;;31.60;29.10;;;;;;5050825;28;20289;-72
2022/05/19 12:32:23;;;;;;;3.45;1.90;;;32.00;28.60;;;;;;5051104;28;20202;-73
2022/05/19 12:34:56;;;;;;;2.78;1.60;;;32.80;28.50;;;;;;5052171;28;20509;-73
2022/05/19 12:37:49;;;;;;;2.88;1.73;;;32.10;27.00;;;;;;5050566;28;20309;-71
2022/05/19 12:40:50;;;;;;;7.28;4.88;;;32.10;27.10;;;;;;5052274;28;20203;-73
2022/05/19 12:43:29;;;;;;;4.70;1.60;;;30.90;27.70;;;;;;5050796;28;20715;-74
2022/05/19 12:45:59;;;;;;;4.22;1.70;;;31.00;28.50;;;;;;5047022;28;20241;-75
2022/05/19 12:48:32;;;;;;;3.88;1.88;;;31.00;28.10;;;;;;5037136;28;20230;-74
2022/05/19 12:51:11;;;;;;;4.00;1.80;;;31.30;28.30;;;;;;5051622;28;20218;-72
2022/05/19 12:53:50;;;;;;;4.60;1.95;;;30.90;28.00;;;;;;5042166;28;20602;-74
2022/05/19 12:56:44;;;;;;;3.95;1.77;;;30.60;28.60;;;;;;5054185;28;20222;-72
2022/05/19 12:59:49;;;;;;;4.05;1.80;;;30.40;28.00;;;;;;5054489;28;20321;-71
2022/05/19 13:02:32;;;;;;;3.88;2.03;;;30.50;28.20;;;;;;5046264;28;20226;-72
2022/05/19 13:05:05;;;;;;;4.20;1.70;;;30.80;28.90;;;;;;5034946;28;20314;-72
2022/05/19 13:07:43;;;;;;;3.80;1.75;;;31.20;28.60;;;;;;5034628;28;20298;-73
2022/05/19 13:10:22;;;;;;;3.28;1.50;;;31.80;28.30;;;;;;5034928;28;20234;-79
2022/05/19 13:12:56;;;;;;;4.88;1.70;;;31.60;28.50;;;;;;5034697;28;20269;-82
2022/05/19 13:15:29;;;;;;;4.95;1.90;;;31.40;28.80;;;;;;5035685;28;20234;-80
2022/05/19 13:17:58;;;;;;;3.33;1.67;;;31.90;28.50;;;;;;5035767;28;20261;-81
2022/05/19 13:20:34;;;;;;;6.07;1.80;;;31.50;27.60;;;;;;5051339;28;20218;-81
2022/05/19 13:23:27;;;;;;;5.38;1.80;;;31.40;27.70;;;;;;5054298;28;20240;-79
2022/05/19 13:26:01;;;;;;;6.03;2.15;;;31.90;29.00;;;;;;5054258;28;20225;-80
2022/05/19 13:31:22;;;;;;;3.92;1.80;;;30.70;28.80;;;;;;5056516;28;20636;-85
2022/05/19 13:33:55;;;;;;;8.52;1.73;;;30.60;29.20;;;;;;5056908;28;20194;-73
2022/05/19 13:36:32;;;;;;;3.92;1.70;;;31.00;29.10;;;;;;5053963;28;20293;-77
2022/05/19 13:39:14;;;;;;;5.95;2.03;;;31.10;28.30;;;;;;5053724;28;20241;-78
2022/05/19 13:41:52;;;;;;;4.68;1.65;;;31.30;28.60;;;;;;5054993;28;20218;-76
2022/05/19 13:44:29;;;;;;;5.47;1.73;;;31.00;28.50;;;;;;5053680;28;20608;-78
2022/05/19 13:46:57;;;;;;;6.90;1.98;;;31.40;28.70;;;;;;5053517;28;20315;-81
2022/05/19 13:49:24;;;;;;;2.38;1.90;;;31.80;28.40;;;;;;5053983;28;20215;-78